createdAt,value
2022-12-01T00:01:13.837Z,67.03
2022-12-01T00:03:40.610Z,67.59
2022-12-01T00:06:11.093Z,67.59
2022-12-01T00:08:38.447Z,67.41
2022-12-01T00:11:07.420Z,67.44
2022-12-01T00:13:34.867Z,67.25
2022-12-01T00:16:13.128Z,67.26
2022-12-01T00:18:39.953Z,67.36
2022-12-01T00:21:07.078Z,67.26
2022-12-01T00:23:33.727Z,67.25
2022-12-01T00:26:05.071Z,67.14
2022-12-01T00:28:31.821Z,67.14
2022-12-01T00:30:58.849Z,66.90
2022-12-01T00:33:25.482Z,67.04
2022-12-01T00:35:58.815Z,66.89
2022-12-01T00:38:25.640Z,67.02
2022-12-01T00:40:52.342Z,67.34
2022-12-01T00:43:18.992Z,67.34
2022-12-01T00:45:45.714Z,67.58
2022-12-01T00:48:12.638Z,67.62
2022-12-01T00:50:39.315Z,67.56
2022-12-01T00:53:05.954Z,67.36
2022-12-01T00:55:32.657Z,67.61
2022-12-01T00:57:59.331Z,67.70
2022-12-01T01:00:26.449Z,67.64
2022-12-01T01:02:53.205Z,67.61
2022-12-01T01:05:20.066Z,67.97
2022-12-01T01:07:46.795Z,67.73
2022-12-01T01:10:13.522Z,67.76
2022-12-01T01:12:40.201Z,67.61
2022-12-01T01:15:07.584Z,67.62
2022-12-01T01:17:34.767Z,67.45
2022-12-01T01:20:01.990Z,67.53
2022-12-01T01:22:28.647Z,67.55
2022-12-01T01:24:55.367Z,67.52
2022-12-01T01:27:22.074Z,67.65
2022-12-01T01:29:49.008Z,67.72
2022-12-01T01:32:15.815Z,67.83
2022-12-01T01:34:42.464Z,67.76
2022-12-01T01:37:09.160Z,67.54
2022-12-01T01:39:35.841Z,67.55
2022-12-01T01:42:02.493Z,67.37
2022-12-01T01:44:48.266Z,67.54
2022-12-01T01:47:27.535Z,67.35
2022-12-01T01:49:56.818Z,67.56
2022-12-01T01:52:23.768Z,67.42
2022-12-01T01:54:53.960Z,67.75
2022-12-01T01:57:28.817Z,67.77
2022-12-01T02:00:01.769Z,67.84
2022-12-01T02:02:44.186Z,67.96
2022-12-01T02:05:33.711Z,67.90
2022-12-01T02:08:01.815Z,68.39
2022-12-01T02:10:49.849Z,68.87
2022-12-01T02:13:59.164Z,69.46
2022-12-01T02:16:40.992Z,69.82
2022-12-01T02:20:02.054Z,70.48
2022-12-01T02:22:35.477Z,70.60
2022-12-01T02:25:32.805Z,71.09
2022-12-01T02:28:02.415Z,70.97
2022-12-01T02:30:41.016Z,71.39
2022-12-01T02:33:23.005Z,71.33
2022-12-01T02:36:02.591Z,71.47
2022-12-01T02:38:48.083Z,71.72
2022-12-01T02:41:39.220Z,71.69
2022-12-01T02:44:32.835Z,71.86
2022-12-01T02:47:19.464Z,71.55
2022-12-01T02:49:51.689Z,71.68
2022-12-01T02:52:20.214Z,71.86
2022-12-01T02:54:48.413Z,71.55
2022-12-01T02:57:16.658Z,72.00
2022-12-01T02:59:47.752Z,71.73
2022-12-01T03:02:24.518Z,72.58
2022-12-01T03:05:01.984Z,72.60
2022-12-01T03:07:37.635Z,72.45
2022-12-01T03:10:24.161Z,71.66
2022-12-01T03:13:18.649Z,71.94
2022-12-01T03:16:03.803Z,72.18
2022-12-01T03:18:39.887Z,72.78
2022-12-01T03:21:52.062Z,73.25
2022-12-01T03:24:23.077Z,73.08
2022-12-01T03:26:56.983Z,73.31
2022-12-01T03:29:30.734Z,72.65
2022-12-01T03:32:06.267Z,72.41
2022-12-01T03:34:37.401Z,72.72
2022-12-01T03:37:13.977Z,72.36
2022-12-01T03:39:43.555Z,72.74
2022-12-01T03:42:14.353Z,72.75
2022-12-01T03:44:47.898Z,72.19
2022-12-01T03:47:22.042Z,72.83
2022-12-01T03:49:51.704Z,72.80
2022-12-01T03:52:41.221Z,72.26
2022-12-01T03:55:24.754Z,73.10
2022-12-01T03:58:10.426Z,73.19
2022-12-01T04:00:37.920Z,73.47
2022-12-01T04:03:05.344Z,73.77
2022-12-01T04:05:34.519Z,73.44
2022-12-01T04:08:02.485Z,73.17
2022-12-01T04:10:29.522Z,73.60
2022-12-01T04:12:59.583Z,72.96
2022-12-01T04:15:27.649Z,72.81
2022-12-01T04:17:54.649Z,72.53
2022-12-01T04:20:21.885Z,73.05
2022-12-01T04:22:48.824Z,73.23
2022-12-01T04:25:16.035Z,72.85
2022-12-01T04:27:42.960Z,72.66
2022-12-01T04:30:11.101Z,72.74
2022-12-01T04:32:43.357Z,73.14
2022-12-01T04:35:12.177Z,72.56
2022-12-01T04:37:39.698Z,73.05
2022-12-01T04:40:07.271Z,72.86
2022-12-01T04:42:34.218Z,73.05
2022-12-01T04:45:01.147Z,72.80
2022-12-01T04:47:27.999Z,73.06
2022-12-01T04:49:54.876Z,73.52
2022-12-01T04:52:21.805Z,72.96
2022-12-01T04:54:48.657Z,72.99
2022-12-01T04:57:15.575Z,73.43
2022-12-01T04:59:42.463Z,72.91
2022-12-01T05:02:09.289Z,73.17
2022-12-01T05:04:38.723Z,73.08
2022-12-01T05:07:06.085Z,72.54
2022-12-01T05:09:32.783Z,72.95
2022-12-01T05:11:59.490Z,73.10
2022-12-01T05:14:26.283Z,72.53
2022-12-01T05:16:58.037Z,72.38
2022-12-01T05:19:43.341Z,71.72
2022-12-01T05:22:10.025Z,71.55
2022-12-01T05:24:40.129Z,71.78
2022-12-01T05:27:06.799Z,71.39
2022-12-01T05:29:33.966Z,71.91
2022-12-01T05:32:03.774Z,72.13
2022-12-01T05:34:30.571Z,72.37
2022-12-01T05:36:57.199Z,72.47
2022-12-01T05:39:23.923Z,72.25
2022-12-01T05:41:50.528Z,72.44
2022-12-01T05:44:17.145Z,72.13
2022-12-01T05:46:43.828Z,72.28
2022-12-01T05:49:10.479Z,71.98
2022-12-01T05:51:37.122Z,72.21
2022-12-01T05:54:03.802Z,72.51
2022-12-01T05:56:30.531Z,72.68
2022-12-01T05:58:57.185Z,72.36
2022-12-01T06:01:23.867Z,72.69
2022-12-01T06:03:50.619Z,72.71
2022-12-01T06:06:17.487Z,72.66
2022-12-01T06:08:44.147Z,73.35
2022-12-01T06:11:10.833Z,73.14
2022-12-01T06:13:37.664Z,73.29
2022-12-01T06:16:06.339Z,73.59
2022-12-01T06:18:35.803Z,74.09
2022-12-01T06:21:03.070Z,73.89
2022-12-01T06:23:30.818Z,74.23
2022-12-01T06:25:58.093Z,73.91
2022-12-01T06:28:24.768Z,73.88
2022-12-01T06:30:51.510Z,74.05
2022-12-01T06:33:18.223Z,73.32
2022-12-01T06:35:44.941Z,73.21
2022-12-01T06:38:11.640Z,73.21
2022-12-01T06:40:38.380Z,73.11
2022-12-01T06:43:05.633Z,73.16
2022-12-01T06:45:32.368Z,73.45
2022-12-01T06:47:59.135Z,72.86
2022-12-01T06:50:26.199Z,73.46
2022-12-01T06:52:53.109Z,73.06
2022-12-01T06:55:19.905Z,72.82
2022-12-01T06:57:46.817Z,73.25
2022-12-01T07:00:14.782Z,73.49
2022-12-01T07:02:42.138Z,72.29
2022-12-01T07:05:09.232Z,72.54
2022-12-01T07:07:39.412Z,72.99
2022-12-01T07:10:08.636Z,72.66
2022-12-01T07:12:35.645Z,72.81
2022-12-01T07:15:03.110Z,72.81
2022-12-01T07:17:30.072Z,73.09
2022-12-01T07:19:57.444Z,73.10
2022-12-01T07:22:29.499Z,72.83
2022-12-01T07:24:59.038Z,72.56
2022-12-01T07:27:29.693Z,72.64
2022-12-01T07:29:56.351Z,73.34
2022-12-01T07:32:23.079Z,73.12
2022-12-01T07:34:49.721Z,73.25
2022-12-01T07:37:16.369Z,73.76
2022-12-01T07:39:43.061Z,73.79
2022-12-01T07:42:09.791Z,73.47
2022-12-01T07:44:36.484Z,73.29
2022-12-01T07:47:03.242Z,73.18
2022-12-01T07:49:29.895Z,72.88
2022-12-01T07:51:56.585Z,73.14
2022-12-01T07:54:23.262Z,73.38
2022-12-01T07:56:49.966Z,73.68
2022-12-01T07:59:16.697Z,73.66
2022-12-01T08:01:44.881Z,73.78
2022-12-01T08:04:12.029Z,73.34
2022-12-01T08:06:38.758Z,74.04
2022-12-01T08:09:05.841Z,74.27
2022-12-01T08:11:34.734Z,73.74
2022-12-01T08:14:01.972Z,73.09
2022-12-01T08:16:28.794Z,72.94
2022-12-01T08:18:55.622Z,73.79
2022-12-01T08:21:24.063Z,73.63
2022-12-01T08:23:57.997Z,73.97
2022-12-01T08:26:25.768Z,73.84
2022-12-01T08:28:52.673Z,74.74
2022-12-01T08:31:22.607Z,74.07
2022-12-01T08:33:50.540Z,74.31
2022-12-01T08:36:18.205Z,73.93
2022-12-01T08:38:45.796Z,74.44
2022-12-01T08:41:13.241Z,73.75
2022-12-01T08:43:57.193Z,73.63
2022-12-01T08:46:26.822Z,73.69
2022-12-01T08:48:54.934Z,73.87
2022-12-01T08:51:21.709Z,74.44
2022-12-01T08:53:49.740Z,74.18
2022-12-01T08:56:22.586Z,74.56
2022-12-01T08:58:50.260Z,74.23
2022-12-01T09:01:18.098Z,74.56
2022-12-01T09:03:44.875Z,73.67
2022-12-01T09:06:15.285Z,74.00
2022-12-01T09:08:42.418Z,74.53
2022-12-01T09:11:14.929Z,74.13
2022-12-01T09:13:42.505Z,74.23
2022-12-01T09:16:13.430Z,74.32
2022-12-01T09:18:40.732Z,75.00
2022-12-01T09:21:20.637Z,74.36
2022-12-01T09:23:48.085Z,74.44
2022-12-01T09:26:18.632Z,73.78
2022-12-01T09:28:47.017Z,73.38
2022-12-01T09:31:14.754Z,74.10
2022-12-01T09:33:42.198Z,74.35
2022-12-01T09:36:10.166Z,74.41
2022-12-01T09:38:37.971Z,73.52
2022-12-01T09:41:09.027Z,73.71
2022-12-01T09:43:42.701Z,73.42
2022-12-01T09:46:15.946Z,73.84
2022-12-01T09:48:48.236Z,74.17
2022-12-01T09:51:17.095Z,73.75
2022-12-01T09:53:45.073Z,73.56
2022-12-01T09:56:20.242Z,73.24
2022-12-01T09:58:51.361Z,73.50
2022-12-01T10:01:25.855Z,73.83
2022-12-01T10:03:59.087Z,74.18
2022-12-01T10:06:42.339Z,74.11
2022-12-01T10:09:17.892Z,73.89
2022-12-01T10:11:46.700Z,74.17
2022-12-01T10:14:20.026Z,74.26
2022-12-01T10:17:16.464Z,74.27
2022-12-01T10:20:04.287Z,73.88
2022-12-01T10:22:45.935Z,74.65
2022-12-01T10:25:51.664Z,73.79
2022-12-01T10:28:27.543Z,73.76
2022-12-01T10:31:01.780Z,73.73
2022-12-01T10:33:45.434Z,74.15
2022-12-01T10:36:12.161Z,73.52
2022-12-01T10:38:39.270Z,73.99
2022-12-01T10:41:12.246Z,74.41
2022-12-01T10:43:50.519Z,74.24
2022-12-01T10:46:39.609Z,73.26
2022-12-01T10:49:12.154Z,72.98
2022-12-01T10:51:50.897Z,73.40
2022-12-01T10:54:18.757Z,73.26
2022-12-01T10:56:48.907Z,73.61
2022-12-01T10:59:26.765Z,74.27
2022-12-01T11:01:54.576Z,73.04
2022-12-01T11:04:33.625Z,72.60
2022-12-01T11:07:01.920Z,72.42
2022-12-01T11:09:30.604Z,72.41
2022-12-01T11:12:00.389Z,72.73
2022-12-01T11:14:41.179Z,72.51
2022-12-01T11:17:39.839Z,72.38
2022-12-01T11:20:39.591Z,72.07
2022-12-01T11:23:18.195Z,72.40
2022-12-01T11:25:57.283Z,72.80
2022-12-01T11:28:24.910Z,72.52
2022-12-01T11:31:00.544Z,73.38
2022-12-01T11:33:29.282Z,72.37
2022-12-01T11:35:56.338Z,72.26
2022-12-01T11:38:30.798Z,71.08
2022-12-01T11:40:58.484Z,71.33
2022-12-01T11:43:32.054Z,71.57
2022-12-01T11:46:03.784Z,71.92
2022-12-01T11:48:34.507Z,72.05
2022-12-01T11:51:17.766Z,72.12
2022-12-01T11:53:44.695Z,72.38
2022-12-01T11:56:23.393Z,72.53
2022-12-01T11:59:03.472Z,71.90
2022-12-01T12:01:45.447Z,71.94
2022-12-01T12:04:21.159Z,71.32
2022-12-01T12:07:09.419Z,71.93
2022-12-01T12:09:54.700Z,71.66
2022-12-01T12:12:36.151Z,71.57
2022-12-01T12:15:16.245Z,70.78
2022-12-01T12:17:49.419Z,70.10
2022-12-01T12:20:26.413Z,70.42
2022-12-01T12:23:10.156Z,69.93
2022-12-01T12:26:13.838Z,70.63
2022-12-01T12:29:07.077Z,69.41
2022-12-01T12:32:07.259Z,69.85
2022-12-01T12:35:04.944Z,69.98
2022-12-01T12:37:39.866Z,69.75
2022-12-01T12:40:09.466Z,70.10
2022-12-01T12:43:13.057Z,69.38
2022-12-01T12:46:02.368Z,69.37
2022-12-01T12:49:26.420Z,69.34
2022-12-01T12:52:08.050Z,68.62
2022-12-01T12:54:50.582Z,68.37
2022-12-01T12:57:35.210Z,68.24
2022-12-01T13:00:07.843Z,68.63
2022-12-01T13:02:42.748Z,68.17
2022-12-01T13:05:18.953Z,67.33
2022-12-01T13:07:56.350Z,67.10
2022-12-01T13:10:26.672Z,66.47
2022-12-01T13:12:59.251Z,66.58
2022-12-01T13:15:27.266Z,65.79
2022-12-01T13:18:21.246Z,65.39
2022-12-01T13:20:49.971Z,65.54
2022-12-01T13:23:20.042Z,65.35
2022-12-01T13:25:51.647Z,64.57
2022-12-01T13:28:26.279Z,64.92
2022-12-01T13:30:59.366Z,65.57
2022-12-01T13:33:26.634Z,64.92
2022-12-01T13:36:21.294Z,64.83
2022-12-01T13:38:42.027Z,64.76
2022-12-01T13:41:17.864Z,64.22
2022-12-01T13:43:57.840Z,64.29
2022-12-01T13:46:35.187Z,63.43
2022-12-01T13:49:03.662Z,63.85
2022-12-01T13:52:09.177Z,63.92
2022-12-01T13:54:37.484Z,64.11
2022-12-01T13:57:10.743Z,64.73
2022-12-01T13:59:39.118Z,64.40
2022-12-01T14:02:17.037Z,65.07
2022-12-01T14:04:43.974Z,65.14
2022-12-01T14:07:21.164Z,64.78
2022-12-01T14:09:51.106Z,64.70
2022-12-01T14:12:25.470Z,64.95
2022-12-01T14:14:59.803Z,65.09
2022-12-01T14:17:30.942Z,64.33
2022-12-01T14:20:20.491Z,64.36
2022-12-01T14:23:03.753Z,63.94
2022-12-01T14:25:31.662Z,64.92
2022-12-01T14:28:04.450Z,64.64
2022-12-01T14:30:49.981Z,64.22
2022-12-01T14:33:47.749Z,63.51
2022-12-01T14:36:23.774Z,63.62
2022-12-01T14:38:59.856Z,63.67
2022-12-01T14:42:39.311Z,63.87
2022-12-01T14:45:11.778Z,63.92
2022-12-01T14:48:02.460Z,64.23
2022-12-01T14:50:43.559Z,64.58
2022-12-01T14:53:30.720Z,64.07
2022-12-01T14:56:02.144Z,64.70
2022-12-01T14:58:31.504Z,63.52
2022-12-01T15:01:07.371Z,63.70
2022-12-01T15:04:00.331Z,63.56
2022-12-01T15:06:30.076Z,63.78
2022-12-01T15:09:34.027Z,63.95
2022-12-01T15:12:06.818Z,64.12
2022-12-01T15:14:34.809Z,64.15
2022-12-01T15:17:05.068Z,64.20
2022-12-01T15:19:40.211Z,64.96
2022-12-01T15:22:09.935Z,64.92
2022-12-01T15:24:36.733Z,63.85
2022-12-01T15:27:04.294Z,64.14
2022-12-01T15:29:45.460Z,64.54
2022-12-01T15:32:16.957Z,65.44
2022-12-01T15:34:46.973Z,64.94
2022-12-01T15:37:15.678Z,64.87
2022-12-01T15:39:49.648Z,65.95
2022-12-01T15:42:38.266Z,66.02
2022-12-01T15:45:14.242Z,65.67
2022-12-01T15:47:40.895Z,66.01
2022-12-01T15:50:41.273Z,65.48
2022-12-01T15:53:26.595Z,65.39
2022-12-01T15:55:58.751Z,66.04
2022-12-01T15:58:32.765Z,65.87
2022-12-01T16:01:02.260Z,65.66
2022-12-01T16:03:29.778Z,65.27
2022-12-01T16:05:57.724Z,65.19
2022-12-01T16:08:28.591Z,65.47
2022-12-01T16:11:14.412Z,65.33
2022-12-01T16:13:57.066Z,64.97
2022-12-01T16:16:37.748Z,65.72
2022-12-01T16:19:23.851Z,65.21
2022-12-01T16:22:05.064Z,65.69
2022-12-01T16:24:43.213Z,66.02
2022-12-01T16:27:23.879Z,65.94
2022-12-01T16:29:54.635Z,66.03
2022-12-01T16:32:21.902Z,66.29
2022-12-01T16:34:51.384Z,65.35
2022-12-01T16:37:18.385Z,66.04
2022-12-01T16:39:45.169Z,65.90
2022-12-01T16:42:14.348Z,66.20
2022-12-01T16:44:42.578Z,66.17
2022-12-01T16:47:25.588Z,66.10
2022-12-01T16:49:52.984Z,66.05
2022-12-01T16:55:33.617Z,65.51
2022-12-01T16:58:00.312Z,65.95
2022-12-01T17:00:29.327Z,65.59
2022-12-01T17:02:57.145Z,65.04
2022-12-01T17:05:24.231Z,65.85
2022-12-01T17:07:51.778Z,65.53
2022-12-01T17:10:20.501Z,65.10
2022-12-01T17:12:47.221Z,64.79
2022-12-01T17:15:14.886Z,64.81
2022-12-01T17:17:41.799Z,64.25
2022-12-01T17:20:09.255Z,64.70
2022-12-01T17:22:36.817Z,64.59
2022-12-01T17:25:04.234Z,63.80
2022-12-01T17:27:32.185Z,64.55
2022-12-01T17:30:00.095Z,64.61
2022-12-01T17:32:28.166Z,64.63
2022-12-01T17:34:54.968Z,64.34
2022-12-01T17:37:21.904Z,63.83
2022-12-01T17:39:50.197Z,64.34
2022-12-01T17:42:17.227Z,63.89
2022-12-01T17:44:43.966Z,64.13
2022-12-01T17:47:11.414Z,64.55
2022-12-01T17:49:38.797Z,64.55
2022-12-01T17:52:06.988Z,64.25
2022-12-01T17:54:33.918Z,63.43
2022-12-01T17:57:00.907Z,63.47
2022-12-01T17:59:27.673Z,63.95
2022-12-01T18:01:54.554Z,64.51
2022-12-01T18:04:21.257Z,63.60
2022-12-01T18:06:53.537Z,64.30
2022-12-01T18:09:21.337Z,64.45
2022-12-01T18:11:48.463Z,63.72
2022-12-01T18:14:17.807Z,64.53
2022-12-01T18:16:45.333Z,64.21
2022-12-01T18:19:12.122Z,64.66
2022-12-01T18:21:39.256Z,64.80
2022-12-01T18:24:08.805Z,65.01
2022-12-01T18:26:37.174Z,65.51
2022-12-01T18:29:07.351Z,64.95
2022-12-01T18:31:35.035Z,65.50
2022-12-01T18:34:04.905Z,65.64
2022-12-01T18:36:33.765Z,65.47
2022-12-01T18:39:02.426Z,64.85
2022-12-01T18:41:29.331Z,64.89
2022-12-01T18:43:56.122Z,65.16
2022-12-01T18:46:23.199Z,65.29
2022-12-01T18:48:52.413Z,65.30
2022-12-01T18:51:20.336Z,64.68
2022-12-01T18:53:47.288Z,64.06
2022-12-01T18:56:15.415Z,64.70
2022-12-01T18:58:42.777Z,65.09
2022-12-01T19:01:46.414Z,64.72
2022-12-01T19:04:14.684Z,64.75
2022-12-01T19:06:42.858Z,64.83
2022-12-01T19:09:12.330Z,65.07
2022-12-01T19:11:40.797Z,64.87
2022-12-01T19:14:11.952Z,65.05
2022-12-01T19:16:39.855Z,64.91
2022-12-01T19:19:09.933Z,64.77
2022-12-01T19:21:36.923Z,65.05
2022-12-01T19:24:03.764Z,65.27
2022-12-01T19:26:30.412Z,65.15
2022-12-01T19:28:59.301Z,65.11
2022-12-01T19:31:26.214Z,65.56
2022-12-01T19:33:54.614Z,64.95
2022-12-01T19:36:24.364Z,65.57
2022-12-01T19:38:51.977Z,65.83
2022-12-01T19:41:24.972Z,65.44
2022-12-01T19:43:52.976Z,65.47
2022-12-01T19:46:22.295Z,65.12
2022-12-01T19:48:57.876Z,66.19
2022-12-01T19:51:35.090Z,65.92
2022-12-01T19:54:03.815Z,65.88
2022-12-01T19:56:31.503Z,66.04
2022-12-01T19:58:59.167Z,66.56
2022-12-01T20:01:26.703Z,66.72
2022-12-01T20:03:54.513Z,67.13
2022-12-01T20:06:27.727Z,66.83
2022-12-01T20:08:56.732Z,66.59
2022-12-01T20:11:24.108Z,66.89
2022-12-01T20:15:08.071Z,66.96
2022-12-01T20:17:36.502Z,66.66
2022-12-01T20:20:04.533Z,66.46
2022-12-01T20:22:32.663Z,66.64
2022-12-01T20:24:59.588Z,65.90
2022-12-01T20:27:27.557Z,66.29
2022-12-01T20:29:54.929Z,65.75
2022-12-01T20:32:23.756Z,66.68
2022-12-01T20:34:51.412Z,66.78
2022-12-01T20:37:18.235Z,66.46
2022-12-01T20:39:44.941Z,66.27
2022-12-01T20:42:11.595Z,65.98
2022-12-01T20:44:39.947Z,66.24
2022-12-01T20:47:06.806Z,66.21
2022-12-01T20:49:33.586Z,66.38
2022-12-01T20:52:00.281Z,66.39
2022-12-01T20:54:29.194Z,66.51
2022-12-01T20:57:00.187Z,66.16
2022-12-01T20:59:28.300Z,65.84
2022-12-01T21:01:55.316Z,66.45
2022-12-01T21:04:22.147Z,66.74
2022-12-01T21:06:49.956Z,66.27
2022-12-01T21:09:17.962Z,65.78
2022-12-01T21:12:08.666Z,65.37
2022-12-01T21:14:47.312Z,65.64
2022-12-01T21:17:19.820Z,66.14
2022-12-01T21:20:07.736Z,65.41
2022-12-01T21:22:36.095Z,65.79
2022-12-01T21:25:12.452Z,66.44
2022-12-01T21:27:39.190Z,65.73
2022-12-01T21:30:16.973Z,66.00
2022-12-01T21:32:44.729Z,65.64
2022-12-01T21:35:25.257Z,65.68
2022-12-01T21:38:00.418Z,66.46
2022-12-01T21:40:28.401Z,66.15
2022-12-01T21:42:56.541Z,66.60
2022-12-01T21:45:31.994Z,67.47
2022-12-01T21:48:15.208Z,67.40
2022-12-01T21:50:42.038Z,67.70
2022-12-01T21:53:20.020Z,68.14
2022-12-01T21:55:47.615Z,68.20
2022-12-01T21:58:23.423Z,68.39
2022-12-01T22:00:52.317Z,67.88
2022-12-01T22:03:27.830Z,67.92
2022-12-01T22:06:29.878Z,67.74
2022-12-01T22:09:11.616Z,67.66
2022-12-01T22:11:38.368Z,67.09
2022-12-01T22:14:12.755Z,66.97
2022-12-01T22:16:44.015Z,66.53
2022-12-01T22:19:16.881Z,67.47
2022-12-01T22:21:48.792Z,66.87
2022-12-01T22:24:20.362Z,67.09
2022-12-01T22:26:50.669Z,67.25
2022-12-01T22:29:30.814Z,66.65
2022-12-01T22:32:12.548Z,66.85
2022-12-01T22:34:42.378Z,66.74
2022-12-01T22:37:20.491Z,67.04
2022-12-01T22:39:54.196Z,66.42
2022-12-01T22:42:37.335Z,66.80
2022-12-01T22:45:24.741Z,66.43
2022-12-01T22:47:56.219Z,66.11
2022-12-01T22:50:28.457Z,66.51
2022-12-01T22:53:16.886Z,66.46
2022-12-01T22:55:43.935Z,66.21
2022-12-01T22:58:22.608Z,66.63
2022-12-01T23:00:49.604Z,66.46
2022-12-01T23:03:16.510Z,65.82
2022-12-01T23:05:44.599Z,65.30
2022-12-01T23:08:19.775Z,65.69
2022-12-01T23:10:46.428Z,65.55
2022-12-01T23:13:20.368Z,65.20
2022-12-01T23:15:50.622Z,65.24
2022-12-01T23:18:25.363Z,65.25
2022-12-01T23:20:57.259Z,65.58
2022-12-01T23:23:33.151Z,64.92
2022-12-01T23:26:05.938Z,64.80
2022-12-01T23:28:35.633Z,65.72
2022-12-01T23:31:02.605Z,65.44
2022-12-01T23:33:32.326Z,65.20
2022-12-01T23:36:01.953Z,65.32
2022-12-01T23:38:38.297Z,65.02
2022-12-01T23:41:26.605Z,64.62
2022-12-01T23:44:03.532Z,64.61
2022-12-01T23:46:30.256Z,64.41
2022-12-01T23:49:01.772Z,65.01
2022-12-01T23:51:31.830Z,64.71
2022-12-01T23:54:06.175Z,64.95
2022-12-01T23:56:33.030Z,64.89
2022-12-01T23:59:00.891Z,64.79
